createdAt,value
2023-05-05T00:00:18.256Z,98728.00
2023-05-05T00:02:49.251Z,98736.00
2023-05-05T00:05:20.381Z,98746.00
2023-05-05T00:07:51.355Z,98737.00
2023-05-05T00:10:22.413Z,98731.00
2023-05-05T00:12:53.347Z,98733.00
2023-05-05T00:15:24.327Z,98736.00
2023-05-05T00:17:55.491Z,98729.00
2023-05-05T00:20:26.750Z,98725.00
2023-05-05T00:22:57.629Z,98751.00
2023-05-05T00:25:29.362Z,98733.00
2023-05-05T00:28:00.482Z,98723.00
2023-05-05T00:30:31.784Z,98723.00
2023-05-05T00:33:02.929Z,98745.00
2023-05-05T00:35:35.107Z,98727.00
2023-05-05T00:38:06.334Z,98758.00
2023-05-05T00:40:38.299Z,98733.00
2023-05-05T00:43:09.316Z,98725.00
2023-05-05T00:45:42.876Z,98730.00
2023-05-05T00:48:14.770Z,98724.00
2023-05-05T00:50:45.765Z,98728.00
2023-05-05T00:53:16.698Z,98720.00
2023-05-05T00:55:47.643Z,98728.00
2023-05-05T00:58:18.909Z,98725.00
2023-05-05T01:00:50.557Z,98719.00
2023-05-05T01:03:21.544Z,98727.00
2023-05-05T01:06:07.046Z,98736.00
2023-05-05T01:09:05.702Z,98718.00
2023-05-05T01:11:49.723Z,98720.00
2023-05-05T01:14:30.945Z,98722.00
2023-05-05T01:17:11.412Z,98725.00
2023-05-05T01:20:11.854Z,98713.00
2023-05-05T01:23:04.149Z,98732.00
2023-05-05T01:26:09.010Z,98721.00
2023-05-05T01:29:16.979Z,98726.00
2023-05-05T01:31:57.633Z,98719.00
2023-05-05T01:34:36.397Z,98723.00
2023-05-05T01:37:22.821Z,98726.00
2023-05-05T01:39:59.498Z,98722.00
2023-05-05T01:42:32.727Z,98715.00
2023-05-05T01:45:06.744Z,98712.00
2023-05-05T01:47:40.372Z,98713.00
2023-05-05T01:50:12.638Z,98719.00
2023-05-05T01:52:45.806Z,98717.00
2023-05-05T01:55:19.776Z,98723.00
2023-05-05T01:57:52.229Z,98720.00
2023-05-05T02:00:25.157Z,98717.00
2023-05-05T02:02:57.455Z,98713.00
2023-05-05T02:05:29.348Z,98718.00
2023-05-05T02:08:01.547Z,98718.00
2023-05-05T02:10:32.847Z,98736.00
2023-05-05T02:13:05.091Z,98718.00
2023-05-05T02:15:38.766Z,98713.00
2023-05-05T02:18:10.997Z,98717.00
2023-05-05T02:20:41.964Z,98721.00
2023-05-05T02:23:12.921Z,98723.00
2023-05-05T02:25:50.463Z,98724.00
2023-05-05T02:28:36.519Z,98739.00
2023-05-05T02:31:08.908Z,98733.00
2023-05-05T02:33:41.812Z,98741.00
2023-05-05T02:36:21.609Z,98750.00
2023-05-05T02:38:59.630Z,98749.00
2023-05-05T02:41:33.356Z,98748.00
2023-05-05T02:44:06.778Z,98750.00
2023-05-05T02:46:38.924Z,98741.00
2023-05-05T02:49:09.856Z,98745.00
2023-05-05T02:51:40.878Z,98744.00
2023-05-05T02:54:11.879Z,98746.00
2023-05-05T02:56:51.755Z,98748.00
2023-05-05T02:59:41.843Z,98747.00
2023-05-05T03:02:28.838Z,98746.00
2023-05-05T03:05:12.989Z,98745.00
2023-05-05T03:08:02.264Z,98751.00
2023-05-05T03:10:47.053Z,98754.00
2023-05-05T03:13:20.598Z,98747.00
2023-05-05T03:15:53.704Z,98765.00
2023-05-05T03:18:26.520Z,98758.00
2023-05-05T03:20:57.817Z,98758.00
2023-05-05T03:23:28.688Z,98760.00
2023-05-05T03:25:59.604Z,98759.00
2023-05-05T03:28:30.645Z,98750.00
2023-05-05T03:31:02.927Z,98761.00
2023-05-05T03:33:33.773Z,98749.00
2023-05-05T03:36:04.900Z,98767.00
2023-05-05T03:38:35.807Z,98759.00
2023-05-05T03:41:06.732Z,98764.00
2023-05-05T03:43:39.351Z,98765.00
2023-05-05T03:46:10.374Z,98758.00
2023-05-05T03:48:41.979Z,98759.00
2023-05-05T03:51:13.492Z,98755.00
2023-05-05T03:53:44.403Z,98760.00
2023-05-05T03:56:15.462Z,98759.00
2023-05-05T03:58:46.380Z,98770.00
2023-05-05T04:01:17.234Z,98778.00
2023-05-05T04:03:48.192Z,98768.00
2023-05-05T04:06:19.134Z,98765.00
2023-05-05T04:08:50.040Z,98763.00
2023-05-05T04:11:21.371Z,98758.00
2023-05-05T04:13:52.246Z,98775.00
2023-05-05T04:16:23.687Z,98766.00
2023-05-05T04:18:55.378Z,98765.00
2023-05-05T04:21:26.278Z,98764.00
2023-05-05T04:23:57.785Z,98766.00
2023-05-05T04:26:28.672Z,98765.00
2023-05-05T04:28:59.522Z,98763.00
2023-05-05T04:31:32.150Z,98760.00
2023-05-05T04:34:03.094Z,98760.00
2023-05-05T04:36:34.602Z,98760.00
2023-05-05T04:39:07.184Z,98761.00
2023-05-05T04:41:38.227Z,98761.00
2023-05-05T04:44:09.091Z,98768.00
2023-05-05T04:46:40.280Z,98772.00
2023-05-05T04:49:11.225Z,98779.00
2023-05-05T04:51:42.699Z,98793.00
2023-05-05T04:54:13.648Z,98816.00
2023-05-05T04:56:44.479Z,98796.00
2023-05-05T04:59:16.154Z,98780.00
2023-05-05T05:01:47.160Z,98795.00
2023-05-05T05:04:18.835Z,98795.00
2023-05-05T05:06:49.738Z,98804.00
2023-05-05T05:09:20.715Z,98799.00
2023-05-05T05:11:51.714Z,98792.00
2023-05-05T05:14:22.609Z,98806.00
2023-05-05T05:16:53.754Z,98807.00
2023-05-05T05:19:24.656Z,98795.00
2023-05-05T05:21:55.787Z,98803.00
2023-05-05T05:24:26.660Z,98820.00
2023-05-05T05:26:57.598Z,98812.00
2023-05-05T05:29:28.464Z,98815.00
2023-05-05T05:31:59.372Z,98804.00
2023-05-05T05:34:30.576Z,98810.00
2023-05-05T05:37:01.461Z,98813.00
2023-05-05T05:39:32.325Z,98833.00
2023-05-05T05:42:03.640Z,98805.00
2023-05-05T05:44:34.711Z,98811.00
2023-05-05T05:47:05.799Z,98813.00
2023-05-05T05:49:36.991Z,98805.00
2023-05-05T05:52:07.991Z,98815.00
2023-05-05T05:54:39.006Z,98817.00
2023-05-05T05:57:09.917Z,98814.00
2023-05-05T05:59:40.918Z,98819.00
2023-05-05T06:02:11.759Z,98823.00
2023-05-05T06:04:42.766Z,98829.00
2023-05-05T06:07:13.721Z,98826.00
2023-05-05T06:09:44.691Z,98826.00
2023-05-05T06:12:15.685Z,98826.00
2023-05-05T06:14:46.580Z,98824.00
2023-05-05T06:17:17.510Z,98821.00
2023-05-05T06:19:48.386Z,98822.00
2023-05-05T06:22:19.275Z,98831.00
2023-05-05T06:24:50.170Z,98818.00
2023-05-05T06:27:21.066Z,98815.00
2023-05-05T06:29:51.949Z,98820.00
2023-05-05T06:32:22.909Z,98819.00
2023-05-05T06:34:53.788Z,98823.00
2023-05-05T06:37:24.659Z,98818.00
2023-05-05T06:39:56.814Z,98834.00
2023-05-05T06:42:27.781Z,98823.00
2023-05-05T06:44:58.633Z,98823.00
2023-05-05T06:47:29.555Z,98827.00
2023-05-05T06:50:01.165Z,98836.00
2023-05-05T06:52:32.350Z,98832.00
2023-05-05T06:55:03.902Z,98838.00
2023-05-05T06:57:34.836Z,98824.00
2023-05-05T07:00:09.835Z,98832.00
2023-05-05T07:02:41.673Z,98826.00
2023-05-05T07:05:12.614Z,98832.00
2023-05-05T07:07:57.067Z,98840.00
2023-05-05T07:10:28.276Z,98836.00
2023-05-05T07:12:59.250Z,98840.00
2023-05-05T07:15:30.171Z,98848.00
2023-05-05T07:18:01.075Z,98846.00
2023-05-05T07:20:32.264Z,98846.00
2023-05-05T07:23:03.191Z,98842.00
2023-05-05T07:25:34.345Z,98834.00
2023-05-05T07:28:05.659Z,98842.00
2023-05-05T07:30:36.583Z,98847.00
2023-05-05T07:33:07.550Z,98845.00
2023-05-05T07:35:38.520Z,98855.00
2023-05-05T07:38:10.900Z,98856.00
2023-05-05T07:40:42.072Z,98850.00
2023-05-05T07:43:12.949Z,98855.00
2023-05-05T07:45:44.060Z,98850.00
2023-05-05T07:48:14.986Z,98851.00
2023-05-05T07:50:45.969Z,98850.00
2023-05-05T07:53:16.890Z,98849.00
2023-05-05T07:55:47.802Z,98848.00
2023-05-05T07:58:18.684Z,98850.00
2023-05-05T08:00:50.959Z,98860.00
2023-05-05T08:03:24.509Z,98864.00
2023-05-05T08:05:56.516Z,98858.00
2023-05-05T08:08:27.561Z,98877.00
2023-05-05T08:10:58.466Z,98872.00
2023-05-05T08:13:30.403Z,98862.00
2023-05-05T08:16:01.383Z,98889.00
2023-05-05T08:18:33.038Z,98874.00
2023-05-05T08:21:05.544Z,98876.00
2023-05-05T08:23:37.111Z,98871.00
2023-05-05T08:26:09.160Z,98870.00
2023-05-05T08:28:40.079Z,98878.00
2023-05-05T08:31:11.151Z,98877.00
2023-05-05T08:33:42.240Z,98869.00
2023-05-05T08:36:13.703Z,98872.00
2023-05-05T08:38:44.558Z,98870.00
2023-05-05T08:41:18.906Z,98875.00
2023-05-05T08:43:50.568Z,98867.00
2023-05-05T08:46:22.113Z,98869.00
2023-05-05T08:48:55.333Z,98869.00
2023-05-05T08:51:32.067Z,98875.00
2023-05-05T08:54:05.798Z,98899.00
2023-05-05T08:56:43.599Z,98880.00
2023-05-05T08:59:15.974Z,98878.00
2023-05-05T09:01:48.071Z,98870.00
2023-05-05T09:04:19.240Z,98872.00
2023-05-05T09:06:50.636Z,98872.00
2023-05-05T09:09:21.695Z,98874.00
2023-05-05T09:11:53.864Z,98878.00
2023-05-05T09:14:24.790Z,98871.00
2023-05-05T09:16:55.726Z,98877.00
2023-05-05T09:19:26.646Z,98864.00
2023-05-05T09:21:57.549Z,98865.00
2023-05-05T09:24:28.409Z,98868.00
2023-05-05T09:27:00.657Z,98872.00
2023-05-05T09:29:31.587Z,98861.00
2023-05-05T09:32:08.536Z,98866.00
2023-05-05T09:34:39.991Z,98852.00
2023-05-05T09:37:11.062Z,98850.00
2023-05-05T09:39:55.455Z,98844.00
2023-05-05T09:42:26.938Z,98847.00
2023-05-05T09:44:59.793Z,98841.00
2023-05-05T09:47:38.148Z,98851.00
2023-05-05T09:50:11.450Z,98844.00
2023-05-05T09:52:46.703Z,98847.00
2023-05-05T09:55:18.697Z,98845.00
2023-05-05T09:57:49.586Z,98849.00
2023-05-05T10:00:21.155Z,98834.00
2023-05-05T10:02:52.059Z,98844.00
2023-05-05T10:05:23.019Z,98841.00
2023-05-05T10:07:53.915Z,98848.00
2023-05-05T10:10:25.750Z,98844.00
2023-05-05T10:12:58.590Z,98840.00
2023-05-05T10:15:29.569Z,98838.00
2023-05-05T10:18:07.397Z,98836.00
2023-05-05T10:20:40.205Z,98829.00
2023-05-05T10:23:15.677Z,98832.00
2023-05-05T10:25:55.696Z,98828.00
2023-05-05T10:28:51.097Z,98824.00
2023-05-05T10:31:47.145Z,98825.00
2023-05-05T10:34:39.197Z,98816.00
2023-05-05T10:37:11.565Z,98823.00
2023-05-05T10:39:45.019Z,98826.00
2023-05-05T10:42:17.411Z,98814.00
2023-05-05T10:44:49.181Z,98812.00
2023-05-05T10:47:22.581Z,98820.00
2023-05-05T10:50:02.460Z,98814.00
2023-05-05T10:52:36.627Z,98816.00
2023-05-05T10:55:36.407Z,98813.00
2023-05-05T10:58:07.339Z,98816.00
2023-05-05T11:00:41.392Z,98811.00
2023-05-05T11:03:18.483Z,98801.00
2023-05-05T11:06:04.773Z,98797.00
2023-05-05T11:08:38.399Z,98785.00
2023-05-05T11:11:10.912Z,98777.00
2023-05-05T11:13:42.051Z,98772.00
2023-05-05T11:16:46.034Z,98788.00
2023-05-05T11:19:42.722Z,98766.00
2023-05-05T11:22:13.752Z,98769.00
2023-05-05T11:24:44.861Z,98757.00
2023-05-05T11:27:15.994Z,98762.00
2023-05-05T11:30:09.820Z,98767.00
2023-05-05T11:32:41.030Z,98760.00
2023-05-05T11:35:12.549Z,98773.00
2023-05-05T11:37:43.525Z,98760.00
2023-05-05T11:40:24.356Z,98767.00
2023-05-05T11:43:07.443Z,98755.00
2023-05-05T11:45:38.396Z,98757.00
2023-05-05T11:48:28.406Z,98757.00
2023-05-05T11:51:02.311Z,98760.00
2023-05-05T11:53:34.446Z,98754.00
2023-05-05T11:56:10.665Z,98779.00
2023-05-05T11:58:41.977Z,98763.00
2023-05-05T12:01:13.801Z,98761.00
2023-05-05T12:03:45.851Z,98757.00
2023-05-05T12:06:17.061Z,98756.00
2023-05-05T12:08:48.049Z,98754.00
2023-05-05T12:11:18.976Z,98754.00
2023-05-05T12:13:49.864Z,98753.00
2023-05-05T12:16:21.084Z,98753.00
2023-05-05T12:19:08.047Z,98740.00
2023-05-05T12:21:38.940Z,98743.00
2023-05-05T12:24:13.720Z,98737.00
2023-05-05T12:26:44.638Z,98732.00
2023-05-05T12:29:26.159Z,98721.00
2023-05-05T12:31:57.969Z,98732.00
2023-05-05T12:34:29.188Z,98723.00
2023-05-05T12:37:01.499Z,98720.00
2023-05-05T12:39:38.653Z,98717.00
2023-05-05T12:42:09.600Z,98711.00
2023-05-05T12:44:41.442Z,98707.00
2023-05-05T12:47:12.866Z,98706.00
2023-05-05T12:49:51.619Z,98706.00
2023-05-05T12:52:22.653Z,98699.00
2023-05-05T12:54:59.486Z,98696.00
2023-05-05T12:57:30.530Z,98699.00
2023-05-05T13:00:14.871Z,98693.00
2023-05-05T13:02:45.869Z,98692.00
2023-05-05T13:05:29.447Z,98690.00
2023-05-05T13:08:00.600Z,98683.00
2023-05-05T13:10:31.576Z,98676.00
2023-05-05T13:13:04.622Z,98679.00
2023-05-05T13:15:35.597Z,98666.00
2023-05-05T13:18:06.559Z,98667.00
2023-05-05T13:20:37.484Z,98663.00
2023-05-05T13:23:08.296Z,98656.00
2023-05-05T13:25:39.241Z,98666.00
2023-05-05T13:28:10.181Z,98660.00
2023-05-05T13:30:41.939Z,98671.00
2023-05-05T13:33:12.808Z,98665.00
2023-05-05T13:35:43.696Z,98642.00
2023-05-05T13:38:14.515Z,98645.00
2023-05-05T13:40:45.401Z,98646.00
2023-05-05T13:43:16.280Z,98636.00
2023-05-05T13:45:47.284Z,98632.00
2023-05-05T13:48:18.229Z,98627.00
2023-05-05T13:50:49.568Z,98621.00
2023-05-05T13:53:20.439Z,98604.00
2023-05-05T13:55:51.352Z,98600.00
2023-05-05T13:58:22.244Z,98592.00
2023-05-05T14:00:53.153Z,98584.00
2023-05-05T14:03:24.079Z,98576.00
2023-05-05T14:05:54.933Z,98577.00
2023-05-05T14:08:25.802Z,98577.00
2023-05-05T14:10:56.703Z,98578.00
2023-05-05T14:13:27.582Z,98580.00
2023-05-05T14:15:58.459Z,98570.00
2023-05-05T14:18:29.741Z,98573.00
2023-05-05T14:21:00.632Z,98577.00
2023-05-05T14:23:32.067Z,98583.00
2023-05-05T14:26:03.051Z,98586.00
2023-05-05T14:28:34.282Z,98580.00
2023-05-05T14:31:05.406Z,98589.00
2023-05-05T14:33:36.296Z,98589.00
2023-05-05T14:36:07.651Z,98592.00
2023-05-05T14:38:38.534Z,98596.00
2023-05-05T14:41:09.554Z,98594.00
2023-05-05T14:43:41.021Z,98590.00
2023-05-05T14:46:11.963Z,98598.00
2023-05-05T14:48:43.008Z,98581.00
2023-05-05T14:51:16.809Z,98582.00
2023-05-05T14:53:47.812Z,98573.00
2023-05-05T14:56:21.800Z,98573.00
2023-05-05T14:58:53.135Z,98575.00
2023-05-05T15:01:25.791Z,98566.00
2023-05-05T15:03:57.210Z,98564.00
2023-05-05T15:06:28.282Z,98552.00
2023-05-05T15:08:59.292Z,98568.00
2023-05-05T15:11:30.115Z,98572.00
2023-05-05T15:14:00.993Z,98561.00
2023-05-05T15:16:35.041Z,98565.00
2023-05-05T15:19:06.173Z,98564.00
2023-05-05T15:21:37.050Z,98577.00
2023-05-05T15:24:08.062Z,98567.00
2023-05-05T15:26:38.988Z,98569.00
2023-05-05T15:29:09.860Z,98568.00
2023-05-05T15:31:41.631Z,98558.00
2023-05-05T15:34:12.623Z,98554.00
2023-05-05T15:36:43.468Z,98557.00
2023-05-05T15:39:14.422Z,98555.00
2023-05-05T15:41:45.390Z,98563.00
2023-05-05T15:44:16.400Z,98587.00
2023-05-05T15:46:48.330Z,98586.00
2023-05-05T15:49:21.206Z,98561.00
2023-05-05T15:51:52.232Z,98562.00
2023-05-05T15:54:23.191Z,98575.00
2023-05-05T15:56:54.120Z,98570.00
2023-05-05T15:59:25.470Z,98579.00
2023-05-05T16:01:56.331Z,98587.00
2023-05-05T16:04:27.251Z,98589.00
2023-05-05T16:06:58.195Z,98581.00
2023-05-05T16:09:29.473Z,98591.00
2023-05-05T16:12:00.417Z,98597.00
2023-05-05T16:14:34.530Z,98595.00
2023-05-05T16:17:05.538Z,98609.00
2023-05-05T16:19:36.501Z,98614.00
2023-05-05T16:22:07.749Z,98615.00
2023-05-05T16:24:38.704Z,98616.00
2023-05-05T16:27:09.619Z,98618.00
2023-05-05T16:29:40.774Z,98627.00
2023-05-05T16:32:12.037Z,98630.00
2023-05-05T16:34:43.147Z,98641.00
2023-05-05T16:37:14.005Z,98653.00
2023-05-05T16:39:44.834Z,98642.00
2023-05-05T16:42:15.958Z,98649.00
2023-05-05T16:44:46.828Z,98656.00
2023-05-05T16:47:17.692Z,98665.00
2023-05-05T16:49:48.569Z,98670.00
2023-05-05T16:52:19.532Z,98686.00
2023-05-05T16:54:55.499Z,98696.00
2023-05-05T16:57:26.964Z,98702.00
2023-05-05T16:59:57.856Z,98702.00
2023-05-05T17:02:28.787Z,98724.00
2023-05-05T17:04:59.769Z,98700.00
2023-05-05T17:07:30.666Z,98698.00
2023-05-05T17:10:01.847Z,98702.00
2023-05-05T17:12:32.805Z,98691.00
2023-05-05T17:15:04.295Z,98682.00
2023-05-05T17:17:35.325Z,98683.00
2023-05-05T17:20:07.693Z,98692.00
2023-05-05T17:22:38.682Z,98695.00
2023-05-05T17:25:10.910Z,98702.00
2023-05-05T17:27:42.168Z,98703.00
2023-05-05T17:30:13.769Z,98708.00
2023-05-05T17:32:45.104Z,98698.00
2023-05-05T17:35:16.490Z,98703.00
2023-05-05T17:37:47.503Z,98718.00
2023-05-05T17:40:18.459Z,98717.00
2023-05-05T17:42:49.285Z,98719.00
2023-05-05T17:45:20.140Z,98721.00
2023-05-05T17:47:51.063Z,98722.00
2023-05-05T17:50:21.973Z,98714.00
2023-05-05T17:52:52.925Z,98702.00
2023-05-05T17:55:23.895Z,98702.00
2023-05-05T17:57:55.931Z,98700.00
2023-05-05T18:00:26.913Z,98691.00
2023-05-05T18:02:57.868Z,98712.00
2023-05-05T18:05:28.930Z,98687.00
2023-05-05T18:08:00.025Z,98693.00
2023-05-05T18:10:30.982Z,98691.00
2023-05-05T18:13:02.445Z,98697.00
2023-05-05T18:15:33.655Z,98692.00
2023-05-05T18:18:04.826Z,98692.00
2023-05-05T18:20:35.719Z,98702.00
2023-05-05T18:23:06.583Z,98701.00
2023-05-05T18:25:37.496Z,98710.00
2023-05-05T18:28:08.335Z,98709.00
2023-05-05T18:30:39.250Z,98706.00
2023-05-05T18:33:10.222Z,98717.00
2023-05-05T18:35:41.426Z,98719.00
2023-05-05T18:38:12.429Z,98703.00
2023-05-05T18:40:43.398Z,98730.00
2023-05-05T18:43:14.367Z,98728.00
2023-05-05T18:45:45.361Z,98720.00
2023-05-05T18:48:16.554Z,98722.00
2023-05-05T18:50:47.805Z,98717.00
2023-05-05T18:53:18.728Z,98729.00
2023-05-05T18:55:49.683Z,98725.00
2023-05-05T18:58:21.347Z,98726.00
2023-05-05T19:00:52.307Z,98745.00
2023-05-05T19:03:23.572Z,98751.00
2023-05-05T19:05:54.472Z,98754.00
2023-05-05T19:08:25.649Z,98760.00
2023-05-05T19:10:56.554Z,98765.00
2023-05-05T19:13:27.492Z,98764.00
2023-05-05T19:15:58.965Z,98768.00
2023-05-05T19:18:29.967Z,98765.00
2023-05-05T19:21:00.926Z,98767.00
2023-05-05T19:23:32.294Z,98771.00
2023-05-05T19:26:06.475Z,98772.00
2023-05-05T19:28:37.393Z,98769.00
2023-05-05T19:31:08.276Z,98772.00
2023-05-05T19:33:42.368Z,98771.00
2023-05-05T19:36:13.304Z,98773.00
2023-05-05T19:38:46.491Z,98771.00
2023-05-05T19:41:17.898Z,98783.00
2023-05-05T19:43:50.001Z,98783.00
2023-05-05T19:46:20.987Z,98783.00
2023-05-05T19:48:52.174Z,98779.00
2023-05-05T19:51:23.243Z,98783.00
2023-05-05T19:53:54.454Z,98781.00
2023-05-05T19:56:26.154Z,98785.00
2023-05-05T19:59:00.726Z,98784.00
2023-05-05T20:01:33.196Z,98791.00
2023-05-05T20:04:04.292Z,98786.00
2023-05-05T20:06:36.345Z,98798.00
2023-05-05T20:09:07.380Z,98800.00
2023-05-05T20:11:38.308Z,98812.00
2023-05-05T20:14:09.285Z,98817.00
2023-05-05T20:16:41.107Z,98809.00
2023-05-05T20:19:12.079Z,98812.00
2023-05-05T20:21:42.975Z,98815.00
2023-05-05T20:24:14.127Z,98809.00
2023-05-05T20:26:45.490Z,98817.00
2023-05-05T20:29:16.528Z,98816.00
2023-05-05T20:31:48.035Z,98833.00
2023-05-05T20:34:19.402Z,98812.00
2023-05-05T20:36:50.886Z,98836.00
2023-05-05T20:39:22.759Z,98814.00
2023-05-05T20:41:53.767Z,98800.00
2023-05-05T20:44:24.809Z,98799.00
2023-05-05T20:46:56.003Z,98806.00
2023-05-05T20:49:27.046Z,98806.00
2023-05-05T20:51:58.781Z,98818.00
2023-05-05T20:54:36.599Z,98815.00
2023-05-05T20:57:07.809Z,98828.00
2023-05-05T20:59:38.772Z,98820.00
2023-05-05T21:02:09.761Z,98815.00
2023-05-05T21:04:40.856Z,98820.00
2023-05-05T21:07:11.882Z,98814.00
2023-05-05T21:09:46.772Z,98810.00
2023-05-05T21:12:17.637Z,98805.00
2023-05-05T21:14:48.502Z,98809.00
2023-05-05T21:17:19.359Z,98804.00
2023-05-05T21:19:50.572Z,98788.00
2023-05-05T21:22:21.861Z,98788.00
2023-05-05T21:24:52.758Z,98792.00
2023-05-05T21:27:25.028Z,98799.00
2023-05-05T21:29:56.123Z,98812.00
2023-05-05T21:32:27.280Z,98804.00
2023-05-05T21:34:58.204Z,98797.00
2023-05-05T21:37:29.201Z,98795.00
2023-05-05T21:40:00.069Z,98795.00
2023-05-05T21:42:31.084Z,98796.00
2023-05-05T21:45:02.104Z,98798.00
2023-05-05T21:47:33.053Z,98794.00
2023-05-05T21:50:04.300Z,98794.00
2023-05-05T21:52:35.600Z,98788.00
2023-05-05T21:55:07.154Z,98793.00
2023-05-05T21:57:38.089Z,98783.00
2023-05-05T22:00:10.123Z,98786.00
2023-05-05T22:02:41.344Z,98784.00
2023-05-05T22:05:12.342Z,98775.00
2023-05-05T22:07:43.288Z,98768.00
2023-05-05T22:10:14.185Z,98771.00
2023-05-05T22:12:45.107Z,98771.00
2023-05-05T22:15:19.373Z,98778.00
2023-05-05T22:17:50.299Z,98778.00
2023-05-05T22:20:21.712Z,98769.00
2023-05-05T22:22:52.612Z,98809.00
2023-05-05T22:25:23.817Z,98777.00
2023-05-05T22:27:55.762Z,98774.00
2023-05-05T22:30:26.882Z,98785.00
2023-05-05T22:32:57.848Z,98795.00
2023-05-05T22:35:28.813Z,98773.00
2023-05-05T22:37:59.809Z,98776.00
2023-05-05T22:40:30.777Z,98780.00
2023-05-05T22:43:01.874Z,98775.00
2023-05-05T22:45:33.352Z,98771.00
2023-05-05T22:48:04.765Z,98778.00
2023-05-05T22:50:35.996Z,98773.00
2023-05-05T22:53:07.546Z,98776.00
2023-05-05T22:55:38.398Z,98786.00
2023-05-05T22:58:09.329Z,98779.00
2023-05-05T23:00:40.212Z,98774.00
2023-05-05T23:03:11.165Z,98778.00
2023-05-05T23:05:42.046Z,98775.00
2023-05-05T23:08:13.115Z,98779.00
2023-05-05T23:10:43.981Z,98779.00
2023-05-05T23:13:14.910Z,98770.00
2023-05-05T23:15:45.879Z,98774.00
2023-05-05T23:18:16.736Z,98772.00
2023-05-05T23:20:47.603Z,98772.00
2023-05-05T23:23:18.459Z,98773.00
2023-05-05T23:25:49.705Z,98782.00
2023-05-05T23:28:20.561Z,98778.00
2023-05-05T23:30:51.486Z,98777.00
2023-05-05T23:33:22.400Z,98773.00
2023-05-05T23:35:53.656Z,98777.00
2023-05-05T23:38:24.539Z,98787.00
2023-05-05T23:40:55.495Z,98771.00
2023-05-05T23:43:26.589Z,98779.00
2023-05-05T23:45:58.200Z,98778.00
2023-05-05T23:48:29.096Z,98768.00
2023-05-05T23:50:59.965Z,98782.00
2023-05-05T23:53:30.874Z,98775.00
2023-05-05T23:56:01.770Z,98772.00
2023-05-05T23:58:32.635Z,98781.00
